Time;durP1;ratioP1;P1;durP2;ratioP2;P2;SDS_P1;SDS_P2;PMS_P1;PMS_P2;Temp;Humidity;BMP_temperature;BMP_pressure;BME280_temperature;BME280_humidity;BME280_pressure;Samples;Min_cycle;Max_cycle;Signal;HPM_P1;HPM_P2
2022/07/06 00:01:29;;;;;;;4.53;3.43;;;14.40;99.90;;;;;;5018288;28;20916;-59
2022/07/06 00:03:58;;;;;;;4.13;3.20;;;14.40;99.90;;;;;;5018098;28;20486;-58
2022/07/06 00:06:29;;;;;;;3.70;3.40;;;14.40;99.90;;;;;;5017894;28;20885;-59
2022/07/06 00:09:00;;;;;;;6.20;3.70;;;14.30;99.90;;;;;;5017909;28;20439;-57
2022/07/06 00:11:27;;;;;;;6.60;3.10;;;14.30;99.90;;;;;;5017923;28;20499;-56
2022/07/06 00:13:56;;;;;;;4.63;3.40;;;14.30;99.90;;;;;;5017572;28;20818;-58
2022/07/06 00:16:26;;;;;;;4.50;3.17;;;14.20;99.90;;;;;;5017922;28;20468;-58
2022/07/06 00:18:56;;;;;;;4.00;3.10;;;14.10;99.90;;;;;;5017883;28;20468;-59
2022/07/06 00:21:23;;;;;;;3.60;3.30;;;14.10;99.90;;;;;;5017955;28;20767;-59
2022/07/06 00:23:51;;;;;;;3.83;3.33;;;14.10;99.90;;;;;;5017262;28;20504;-59
2022/07/06 00:26:20;;;;;;;4.23;3.83;;;14.20;99.90;;;;;;5017391;28;20487;-59
2022/07/06 00:28:47;;;;;;;5.47;4.00;;;14.10;99.90;;;;;;5017557;28;20459;-59
2022/07/06 00:31:16;;;;;;;4.23;3.83;;;14.10;99.90;;;;;;5017616;28;20562;-58
2022/07/06 00:33:43;;;;;;;7.00;3.60;;;14.00;99.90;;;;;;5017367;28;20442;-57
2022/07/06 00:36:13;;;;;;;4.33;2.83;;;13.90;99.90;;;;;;5016806;28;20467;-59
2022/07/06 00:38:46;;;;;;;5.73;3.30;;;13.90;99.90;;;;;;5017722;28;20475;-59
2022/07/06 00:41:17;;;;;;;4.07;3.23;;;13.90;99.90;;;;;;5016340;28;20464;-56
2022/07/06 00:43:55;;;;;;;4.70;3.87;;;13.90;99.90;;;;;;5017106;28;20468;-59
2022/07/06 00:46:27;;;;;;;12.10;3.63;;;13.90;99.90;;;;;;5017259;28;20507;-59
2022/07/06 00:48:54;;;;;;;4.20;3.63;;;13.70;99.90;;;;;;5016992;28;20897;-59
2022/07/06 00:51:26;;;;;;;3.73;3.43;;;13.80;99.90;;;;;;5017434;28;20496;-59
2022/07/06 00:53:54;;;;;;;5.20;3.03;;;13.80;99.90;;;;;;5017088;28;20818;-59
2022/07/06 00:56:22;;;;;;;6.53;3.40;;;13.70;99.90;;;;;;5016863;28;20582;-59
2022/07/06 00:58:49;;;;;;;5.87;3.20;;;13.60;99.90;;;;;;5017460;28;20464;-54
2022/07/06 01:01:21;;;;;;;3.43;2.97;;;13.50;99.90;;;;;;5019181;28;20734;-55
2022/07/06 01:03:50;;;;;;;5.37;3.07;;;13.40;99.90;;;;;;5021618;28;20800;-56
2022/07/06 01:06:19;;;;;;;3.63;3.27;;;13.40;99.90;;;;;;5021009;28;20511;-59
2022/07/06 01:08:47;;;;;;;4.73;3.50;;;13.40;99.90;;;;;;5021422;28;20522;-56
2022/07/06 01:11:15;;;;;;;5.50;3.10;;;13.40;99.90;;;;;;5021116;28;20499;-59
2022/07/06 01:13:43;;;;;;;3.83;3.03;;;13.30;99.90;;;;;;5021103;28;20559;-57
2022/07/06 01:16:10;;;;;;;4.20;3.80;;;13.40;99.90;;;;;;5020990;28;20507;-58
2022/07/06 01:18:42;;;;;;;5.30;3.57;;;13.40;99.90;;;;;;5021042;28;20468;-57
2022/07/06 01:21:12;;;;;;;3.30;2.80;;;13.20;99.90;;;;;;5021205;28;20759;-59
2022/07/06 01:23:44;;;;;;;4.37;3.37;;;13.20;99.90;;;;;;5020515;28;20551;-58
2022/07/06 01:26:16;;;;;;;3.37;2.93;;;13.10;99.90;;;;;;5020540;28;20478;-59
2022/07/06 01:28:45;;;;;;;3.30;2.73;;;13.10;99.90;;;;;;5021162;28;20464;-58
2022/07/06 01:31:16;;;;;;;4.77;3.10;;;13.10;99.90;;;;;;5021204;28;20563;-59
2022/07/06 01:33:44;;;;;;;3.77;3.47;;;13.10;99.90;;;;;;5020831;28;20468;-58
2022/07/06 01:36:17;;;;;;;4.67;3.40;;;13.10;99.90;;;;;;5020415;28;20483;-59
2022/07/06 01:38:51;;;;;;;4.13;3.67;;;13.00;99.90;;;;;;5020802;28;20775;-59
2022/07/06 01:41:23;;;;;;;5.07;3.50;;;13.00;99.90;;;;;;5020218;28;20953;-59
2022/07/06 01:44:00;;;;;;;3.97;3.60;;;13.10;99.90;;;;;;5020052;28;20551;-53
2022/07/06 01:46:28;;;;;;;4.43;3.70;;;13.20;99.90;;;;;;5020613;28;20812;-59
2022/07/06 01:48:56;;;;;;;4.37;3.80;;;13.20;99.90;;;;;;5020472;28;20472;-59
2022/07/06 01:51:26;;;;;;;4.23;3.90;;;13.20;99.90;;;;;;5020359;28;20462;-57
2022/07/06 01:53:54;;;;;;;4.20;3.37;;;13.30;99.90;;;;;;5020497;28;20527;-59
2022/07/06 01:56:21;;;;;;;7.30;4.10;;;13.30;99.90;;;;;;5019780;28;20499;-59
2022/07/06 01:58:49;;;;;;;7.37;4.00;;;13.30;99.90;;;;;;5020410;28;20784;-58
2022/07/06 02:01:19;;;;;;;6.23;4.03;;;13.30;99.90;;;;;;5020638;28;20533;-55
2022/07/06 02:03:48;;;;;;;4.53;3.57;;;13.40;99.90;;;;;;5020540;28;20538;-59
2022/07/06 02:06:17;;;;;;;6.87;3.93;;;13.30;99.90;;;;;;5019703;28;20558;-59
2022/07/06 02:08:46;;;;;;;7.53;3.80;;;13.20;99.90;;;;;;5020086;28;20536;-58
2022/07/06 02:11:15;;;;;;;6.53;3.63;;;13.20;99.90;;;;;;5019859;28;20470;-59
2022/07/06 02:13:42;;;;;;;4.83;3.60;;;13.10;99.90;;;;;;5019836;28;20838;-59
2022/07/06 02:16:13;;;;;;;4.10;3.30;;;13.00;99.90;;;;;;5020010;28;20468;-57
2022/07/06 02:18:42;;;;;;;3.33;3.03;;;12.90;99.90;;;;;;5020603;28;20491;-59
2022/07/06 02:21:10;;;;;;;8.33;3.43;;;12.90;99.90;;;;;;5020176;28;20449;-59
2022/07/06 02:23:37;;;;;;;7.60;3.80;;;12.90;99.90;;;;;;5019933;28;20831;-58
2022/07/06 02:26:05;;;;;;;5.67;3.40;;;12.80;99.90;;;;;;5020012;28;20464;-59
2022/07/06 02:28:33;;;;;;;4.90;3.37;;;12.90;99.90;;;;;;5019673;28;20474;-56
2022/07/06 02:31:00;;;;;;;5.07;4.50;;;12.80;99.90;;;;;;5019680;28;20525;-58
2022/07/06 02:33:30;;;;;;;4.63;3.60;;;12.80;99.90;;;;;;5019648;28;20492;-59
2022/07/06 02:35:57;;;;;;;4.43;3.23;;;12.70;99.90;;;;;;5019677;28;20984;-59
2022/07/06 02:38:27;;;;;;;5.37;3.43;;;12.60;99.90;;;;;;5019646;28;20464;-59
2022/07/06 02:40:54;;;;;;;7.90;3.40;;;12.60;99.90;;;;;;5018606;28;20838;-58
2022/07/06 02:43:27;;;;;;;9.70;4.07;;;12.70;99.90;;;;;;5018748;28;20463;-59
2022/07/06 02:45:57;;;;;;;4.80;3.10;;;12.70;99.90;;;;;;5019549;28;20468;-59
2022/07/06 02:48:26;;;;;;;4.83;3.70;;;12.60;99.90;;;;;;5019151;28;20471;-59
2022/07/06 02:50:54;;;;;;;4.63;3.30;;;12.50;99.90;;;;;;5019530;28;20468;-59
2022/07/06 02:53:24;;;;;;;4.33;3.93;;;12.50;99.90;;;;;;5019487;28;20492;-59
2022/07/06 02:55:51;;;;;;;4.70;3.60;;;12.30;99.90;;;;;;5019298;28;20571;-60
2022/07/06 02:58:18;;;;;;;5.00;3.83;;;12.30;99.90;;;;;;5019459;28;20990;-60
2022/07/06 03:00:47;;;;;;;5.40;3.97;;;12.30;99.90;;;;;;5019173;28;20567;-59
2022/07/06 03:03:15;;;;;;;4.63;3.50;;;12.40;99.90;;;;;;5019625;28;20527;-60
2022/07/06 03:05:42;;;;;;;4.70;3.80;;;12.40;99.90;;;;;;5018998;28;20467;-59
2022/07/06 03:08:11;;;;;;;5.53;4.43;;;12.40;99.90;;;;;;5019488;28;20822;-59
2022/07/06 03:10:38;;;;;;;4.90;3.60;;;12.40;99.90;;;;;;5019156;28;20464;-59
2022/07/06 03:13:05;;;;;;;4.97;3.67;;;12.40;99.90;;;;;;5018708;28;20551;-60
2022/07/06 03:15:35;;;;;;;4.30;3.90;;;12.40;99.90;;;;;;5019367;28;20486;-60
2022/07/06 03:18:04;;;;;;;5.03;3.90;;;12.50;99.90;;;;;;5018947;28;20563;-60
2022/07/06 03:20:31;;;;;;;7.50;4.30;;;12.50;99.90;;;;;;5019257;28;20543;-59
2022/07/06 03:22:59;;;;;;;4.67;4.27;;;12.50;99.90;;;;;;5019008;28;20546;-60
2022/07/06 03:25:26;;;;;;;5.53;4.87;;;12.50;99.90;;;;;;5018445;28;20470;-60
2022/07/06 03:27:55;;;;;;;6.43;4.80;;;12.50;99.90;;;;;;5019112;28;20469;-60
2022/07/06 03:30:22;;;;;;;8.13;5.07;;;12.70;99.90;;;;;;5018963;28;20464;-60
2022/07/06 03:32:53;;;;;;;8.33;5.20;;;12.50;99.90;;;;;;5019113;28;20488;-60
2022/07/06 03:35:21;;;;;;;7.00;5.80;;;12.50;99.90;;;;;;5019215;28;20567;-60
2022/07/06 03:37:49;;;;;;;8.10;5.77;;;12.50;99.90;;;;;;5018583;28;20551;-60
2022/07/06 03:40:16;;;;;;;8.47;5.63;;;12.40;99.90;;;;;;5018752;28;20470;-60
2022/07/06 03:42:45;;;;;;;9.00;5.90;;;12.40;99.90;;;;;;5019000;28;20485;-60
2022/07/06 03:45:12;;;;;;;13.00;6.73;;;12.40;99.90;;;;;;5019292;28;20552;-60
2022/07/06 03:47:42;;;;;;;14.00;6.10;;;12.40;99.90;;;;;;5019047;28;20835;-59
2022/07/06 03:50:10;;;;;;;9.10;6.67;;;12.30;99.90;;;;;;5018743;28;20474;-59
2022/07/06 03:52:44;;;;;;;10.97;7.50;;;12.30;99.90;;;;;;5018462;28;20572;-60
2022/07/06 03:55:12;;;;;;;10.60;6.20;;;12.20;99.90;;;;;;5019009;28;20984;-59
2022/07/06 03:57:40;;;;;;;13.87;7.23;;;12.20;99.90;;;;;;5018312;28;20496;-59
2022/07/06 04:00:11;;;;;;;11.60;6.60;;;12.30;99.90;;;;;;5018614;28;20827;-60
2022/07/06 04:02:38;;;;;;;10.00;5.90;;;12.20;99.90;;;;;;5017404;28;20546;-59
2022/07/06 04:05:06;;;;;;;14.63;7.00;;;12.20;99.90;;;;;;5024057;28;20555;-60
2022/07/06 04:07:34;;;;;;;10.73;7.10;;;12.20;99.90;;;;;;5018668;28;20450;-60
2022/07/06 04:10:02;;;;;;;11.90;7.40;;;12.20;99.90;;;;;;5017648;28;20492;-60
2022/07/06 04:12:30;;;;;;;12.53;7.93;;;12.20;99.90;;;;;;5017443;28;20492;-59
2022/07/06 04:14:58;;;;;;;11.63;6.53;;;12.20;99.90;;;;;;5018801;28;20786;-60
2022/07/06 04:20:10;;;;;;;12.30;5.97;;;12.30;99.90;;;;;;5037967;28;20486;-59
2022/07/06 04:22:39;;;;;;;10.00;6.80;;;12.30;99.90;;;;;;5038222;28;20495;-60
2022/07/06 04:25:09;;;;;;;10.47;6.53;;;12.40;99.90;;;;;;5036746;28;20434;-60
2022/07/06 04:27:36;;;;;;;13.07;6.37;;;12.50;99.90;;;;;;5036800;28;20463;-60
2022/07/06 04:30:11;;;;;;;10.20;6.07;;;12.60;99.90;;;;;;5022939;28;20481;-60
2022/07/06 04:32:38;;;;;;;10.30;6.63;;;12.60;99.90;;;;;;5030733;28;20793;-60
2022/07/06 04:35:07;;;;;;;11.27;6.07;;;12.70;99.90;;;;;;5037043;28;20562;-60
2022/07/06 04:37:37;;;;;;;12.33;6.60;;;12.90;99.90;;;;;;5037839;28;20495;-60
2022/07/06 04:40:05;;;;;;;9.47;5.80;;;13.00;99.90;;;;;;5021421;28;20777;-60
2022/07/06 04:42:34;;;;;;;13.67;6.60;;;13.10;99.90;;;;;;5017126;28;20456;-60
2022/07/06 04:45:04;;;;;;;7.10;4.90;;;13.10;99.90;;;;;;5016841;28;20565;-60
2022/07/06 04:47:34;;;;;;;11.70;5.77;;;13.20;99.90;;;;;;5016035;28;20442;-60
2022/07/06 04:50:03;;;;;;;6.73;5.17;;;13.20;99.90;;;;;;5031965;28;20507;-60
2022/07/06 04:52:31;;;;;;;7.17;5.37;;;13.30;99.90;;;;;;5036900;28;20494;-60
2022/07/06 04:55:00;;;;;;;6.93;4.97;;;13.50;99.90;;;;;;5036420;28;20467;-60
2022/07/06 04:57:29;;;;;;;10.50;6.00;;;13.60;99.90;;;;;;5026632;28;20551;-60
2022/07/06 04:59:58;;;;;;;12.07;6.03;;;13.70;99.90;;;;;;5010091;28;20472;-60
2022/07/06 05:02:27;;;;;;;10.93;5.33;;;13.80;99.90;;;;;;5017012;28;20466;-59
2022/07/06 05:04:56;;;;;;;8.73;5.27;;;13.70;99.90;;;;;;5001429;28;20454;-60
2022/07/06 05:07:28;;;;;;;8.07;5.33;;;13.70;99.90;;;;;;5003683;28;20943;-60
2022/07/06 05:09:55;;;;;;;12.13;5.17;;;13.80;99.90;;;;;;5001332;28;20473;-60
2022/07/06 05:12:22;;;;;;;9.90;4.97;;;13.90;99.90;;;;;;4998181;28;20588;-60
2022/07/06 05:14:52;;;;;;;10.50;4.90;;;13.90;99.90;;;;;;4998076;28;20555;-60
2022/07/06 05:17:21;;;;;;;10.30;5.50;;;14.00;99.90;;;;;;4998192;28;20543;-60
2022/07/06 05:19:48;;;;;;;10.50;5.30;;;14.00;99.90;;;;;;4998061;28;20556;-60
2022/07/06 05:22:17;;;;;;;8.30;5.00;;;14.00;99.90;;;;;;4997749;28;20515;-60
2022/07/06 05:24:47;;;;;;;12.83;5.43;;;14.20;99.90;;;;;;4997466;28;20917;-60
2022/07/06 05:27:20;;;;;;;10.03;4.60;;;14.10;99.90;;;;;;4998047;28;20583;-60
2022/07/06 05:29:48;;;;;;;9.60;4.90;;;14.30;99.90;;;;;;4997257;28;20465;-60
2022/07/06 05:32:16;;;;;;;12.10;5.83;;;14.50;99.90;;;;;;4997032;28;20465;-60
2022/07/06 05:34:46;;;;;;;6.63;5.90;;;14.50;99.90;;;;;;4997581;28;20475;-61
2022/07/06 05:37:13;;;;;;;8.77;5.63;;;14.60;99.90;;;;;;4997437;28;20464;-60
2022/07/06 05:39:45;;;;;;;10.03;5.20;;;14.70;99.90;;;;;;4996157;28;20480;-62
2022/07/06 05:42:12;;;;;;;9.40;5.40;;;14.70;99.90;;;;;;4996016;28;20465;-62
2022/07/06 05:44:39;;;;;;;6.83;5.03;;;14.90;99.90;;;;;;4997328;28;20508;-62
2022/07/06 05:50:12;;;;;;;6.83;4.67;;;15.20;99.90;;;;;;5000423;28;20560;-62
2022/07/06 05:52:45;;;;;;;9.13;4.10;;;15.30;99.90;;;;;;5001072;28;20492;-63
2022/07/06 05:55:13;;;;;;;7.97;3.90;;;15.50;99.90;;;;;;5000817;28;20465;-62
2022/07/06 05:57:41;;;;;;;6.87;5.23;;;15.70;99.90;;;;;;5029226;28;20578;-63
2022/07/06 06:00:09;;;;;;;8.37;3.73;;;15.80;99.90;;;;;;5038587;28;20498;-63
2022/07/06 06:02:41;;;;;;;9.00;4.80;;;15.90;99.90;;;;;;5037370;28;20467;-62
2022/07/06 06:05:11;;;;;;;5.80;3.30;;;15.60;99.90;;;;;;5037131;28;20463;-63
2022/07/06 06:07:39;;;;;;;6.40;4.10;;;15.20;99.90;;;;;;5019640;28;20874;-63
2022/07/06 06:10:12;;;;;;;14.40;7.53;;;15.10;99.90;;;;;;5031688;28;20469;-63
2022/07/06 06:12:40;;;;;;;6.63;5.40;;;15.30;99.90;;;;;;5039527;28;20615;-63
2022/07/06 06:15:11;;;;;;;7.60;3.47;;;15.40;99.90;;;;;;5039287;28;20554;-63
2022/07/06 06:17:39;;;;;;;8.47;4.40;;;15.20;99.90;;;;;;5037257;28;20763;-63
2022/07/06 06:20:13;;;;;;;12.53;4.17;;;15.20;99.90;;;;;;5039180;28;20469;-63
2022/07/06 06:22:47;;;;;;;10.60;4.20;;;15.40;99.90;;;;;;5039526;28;20558;-63
2022/07/06 06:25:15;;;;;;;5.10;4.27;;;15.50;99.90;;;;;;5039931;28;20806;-63
2022/07/06 06:27:42;;;;;;;5.23;3.70;;;15.40;99.90;;;;;;5039834;28;20455;-63
2022/07/06 06:30:13;;;;;;;7.30;3.83;;;15.60;99.90;;;;;;5037031;28;20470;-62
2022/07/06 06:32:40;;;;;;;9.30;3.60;;;15.50;99.90;;;;;;5038334;28;20585;-63
2022/07/06 06:35:10;;;;;;;9.20;4.13;;;15.80;99.90;;;;;;5036740;28;20888;-62
2022/07/06 06:37:39;;;;;;;7.73;4.27;;;16.60;99.90;;;;;;5039578;28;20549;-61
2022/07/06 06:40:10;;;;;;;5.80;4.27;;;16.60;99.90;;;;;;5024134;28;20468;-63
2022/07/06 06:42:38;;;;;;;6.10;4.33;;;16.70;99.90;;;;;;5020182;28;20499;-63
2022/07/06 06:45:06;;;;;;;6.20;3.40;;;16.30;99.90;;;;;;5019154;28;20465;-60
2022/07/06 06:47:34;;;;;;;10.90;4.00;;;16.00;99.90;;;;;;5019383;28;20840;-62
2022/07/06 06:50:03;;;;;;;7.53;4.10;;;15.80;99.90;;;;;;5018985;28;20544;-63
2022/07/06 06:52:36;;;;;;;5.10;4.03;;;16.00;99.90;;;;;;5029051;28;20966;-63
2022/07/06 06:55:06;;;;;;;7.57;4.53;;;16.70;99.90;;;;;;5023164;28;20554;-63
2022/07/06 06:57:35;;;;;;;5.40;4.27;;;17.50;99.90;;;;;;5014223;28;20599;-64
2022/07/06 07:00:04;;;;;;;3.93;3.53;;;17.50;99.90;;;;;;5036560;28;20473;-62
2022/07/06 07:02:38;;;;;;;5.60;4.30;;;17.20;99.90;;;;;;5019031;28;20554;-63
2022/07/06 07:05:12;;;;;;;9.07;3.87;;;17.00;99.90;;;;;;5022758;28;20455;-64
2022/07/06 07:07:39;;;;;;;5.70;3.00;;;17.30;99.90;;;;;;5038479;28;20586;-63
2022/07/06 07:10:11;;;;;;;10.70;4.70;;;17.20;99.90;;;;;;5037783;28;20470;-63
2022/07/06 07:12:44;;;;;;;6.00;3.53;;;17.60;99.90;;;;;;5038297;28;20463;-64
2022/07/06 07:15:12;;;;;;;5.67;3.70;;;18.10;99.90;;;;;;5037816;28;20471;-63
2022/07/06 07:17:40;;;;;;;4.20;3.00;;;17.90;99.90;;;;;;4998896;28;20465;-63
2022/07/06 07:20:11;;;;;;;4.37;2.70;;;17.80;99.90;;;;;;5014021;28;20475;-63
2022/07/06 07:22:40;;;;;;;4.87;2.60;;;17.30;99.90;;;;;;5038198;28;20463;-63
2022/07/06 07:25:12;;;;;;;4.77;3.10;;;17.20;99.90;;;;;;5024347;28;20824;-64
2022/07/06 07:27:40;;;;;;;5.47;2.93;;;17.10;99.90;;;;;;5018716;28;20558;-63
2022/07/06 07:30:10;;;;;;;8.60;3.47;;;16.70;99.90;;;;;;5028202;28;20561;-63
2022/07/06 07:32:40;;;;;;;6.07;3.60;;;16.90;99.90;;;;;;5037682;28;20524;-63
2022/07/06 07:35:08;;;;;;;3.77;2.70;;;16.40;99.90;;;;;;5038570;28;20474;-63
2022/07/06 07:37:37;;;;;;;8.50;2.77;;;16.40;99.90;;;;;;5037967;28;20815;-62
2022/07/06 07:40:06;;;;;;;6.40;2.70;;;16.20;99.90;;;;;;5037562;28;20517;-62
2022/07/06 07:42:35;;;;;;;6.63;2.20;;;16.40;99.90;;;;;;5037437;28;20566;-63
2022/07/06 07:45:12;;;;;;;3.47;2.53;;;16.60;99.90;;;;;;5037893;28;20945;-63
2022/07/06 07:47:43;;;;;;;7.13;3.47;;;17.20;99.90;;;;;;5037545;28;20466;-63
2022/07/06 07:50:10;;;;;;;5.40;3.30;;;17.60;99.90;;;;;;5037873;28;20603;-61
2022/07/06 07:52:40;;;;;;;4.33;2.57;;;17.70;99.90;;;;;;5037868;28;20805;-62
2022/07/06 07:55:10;;;;;;;5.23;2.97;;;17.90;99.90;;;;;;5037900;28;20501;-62
2022/07/06 07:57:39;;;;;;;6.23;3.30;;;18.00;99.90;;;;;;5037696;28;20499;-62
2022/07/06 08:00:08;;;;;;;5.70;3.30;;;18.20;99.90;;;;;;5037425;28;20470;-62
2022/07/06 08:02:36;;;;;;;7.17;3.73;;;18.10;99.90;;;;;;5037179;28;20533;-62
2022/07/06 08:05:13;;;;;;;3.73;3.33;;;17.60;99.90;;;;;;5035969;28;20466;-62
2022/07/06 08:07:40;;;;;;;6.63;3.83;;;17.40;99.90;;;;;;5036344;28;20466;-62
2022/07/06 08:10:09;;;;;;;7.47;3.77;;;17.80;99.90;;;;;;5037129;28;20963;-62
2022/07/06 08:12:38;;;;;;;6.70;2.87;;;17.80;99.90;;;;;;5037728;28;20474;-62
2022/07/06 08:15:10;;;;;;;6.13;4.43;;;17.60;99.90;;;;;;5037420;28;20581;-62
2022/07/06 08:17:39;;;;;;;5.70;4.13;;;17.30;99.90;;;;;;5037747;28;20482;-62
2022/07/06 08:20:18;;;;;;;4.57;4.17;;;17.20;99.90;;;;;;5038050;28;20490;-63
2022/07/06 08:22:45;;;;;;;5.80;4.13;;;17.70;99.90;;;;;;5037137;28;20987;-63
2022/07/06 08:25:17;;;;;;;6.33;4.10;;;17.60;99.90;;;;;;5037754;28;20491;-62
2022/07/06 08:27:51;;;;;;;7.57;3.87;;;17.80;99.90;;;;;;5036448;28;20485;-63
2022/07/06 08:30:19;;;;;;;5.10;3.87;;;19.30;99.90;;;;;;5037529;28;20434;-63
2022/07/06 08:32:55;;;;;;;5.40;4.67;;;19.80;99.90;;;;;;5037435;28;20545;-63
2022/07/06 08:35:24;;;;;;;5.83;4.50;;;20.30;99.90;;;;;;5037483;28;20494;-62
2022/07/06 08:37:56;;;;;;;4.87;4.40;;;19.70;99.90;;;;;;5036947;28;20463;-62
2022/07/06 08:40:23;;;;;;;4.87;4.13;;;18.90;99.90;;;;;;5037146;28;20474;-62
2022/07/06 08:42:58;;;;;;;6.57;4.47;;;18.30;99.90;;;;;;5037611;28;20460;-62
2022/07/06 08:45:28;;;;;;;5.53;4.07;;;18.30;99.90;;;;;;5037893;28;20454;-63
2022/07/06 08:47:59;;;;;;;6.17;4.80;;;18.50;99.90;;;;;;5037012;28;20489;-62
2022/07/06 08:50:27;;;;;;;7.00;3.60;;;18.50;99.90;;;;;;5036753;28;20761;-62
2022/07/06 08:52:58;;;;;;;4.73;3.23;;;18.60;99.90;;;;;;5037246;28;20463;-59
2022/07/06 08:55:27;;;;;;;4.03;2.93;;;17.80;99.90;;;;;;5037086;28;20501;-62
2022/07/06 08:57:58;;;;;;;3.30;2.80;;;17.40;99.90;;;;;;5036161;28;20868;-61
2022/07/06 09:00:29;;;;;;;6.80;3.00;;;17.20;99.90;;;;;;5036714;28;20463;-62
2022/07/06 09:02:57;;;;;;;10.93;3.83;;;17.30;99.90;;;;;;5037066;28;20502;-62
2022/07/06 09:05:28;;;;;;;5.50;4.00;;;17.40;99.90;;;;;;5036342;28;20549;-62
2022/07/06 09:07:56;;;;;;;3.97;3.43;;;17.70;99.90;;;;;;5036850;28;20469;-62
2022/07/06 09:10:27;;;;;;;7.60;3.97;;;17.90;99.90;;;;;;5036973;28;20540;-62
2022/07/06 09:13:03;;;;;;;4.33;3.70;;;17.60;99.90;;;;;;5034897;28;20474;-62
2022/07/06 09:15:31;;;;;;;7.47;4.30;;;17.50;99.90;;;;;;5036974;28;20494;-62
2022/07/06 09:18:08;;;;;;;4.63;3.47;;;17.70;99.90;;;;;;5037149;28;20558;-62
2022/07/06 09:20:35;;;;;;;5.80;3.30;;;17.50;99.90;;;;;;5027008;28;20467;-62
2022/07/06 09:23:05;;;;;;;7.57;3.10;;;17.20;99.90;;;;;;5019115;28;20466;-62
2022/07/06 09:25:33;;;;;;;5.40;2.53;;;17.50;99.90;;;;;;5019335;28;20762;-62
2022/07/06 09:28:06;;;;;;;4.07;2.57;;;17.90;99.90;;;;;;5018995;28;20495;-63
2022/07/06 09:30:33;;;;;;;3.77;2.43;;;18.50;99.90;;;;;;5020998;28;20558;-62
2022/07/06 09:33:01;;;;;;;3.00;2.27;;;19.60;99.90;;;;;;5020641;28;20467;-62
2022/07/06 09:35:30;;;;;;;3.97;3.27;;;20.30;99.90;;;;;;5020377;28;20502;-62
2022/07/06 09:38:12;;;;;;;2.27;1.90;;;20.80;99.90;;;;;;5020437;28;20554;-62
2022/07/06 09:40:41;;;;;;;2.33;1.97;;;20.60;99.90;;;;;;5020476;28;20466;-62
2022/07/06 09:43:20;;;;;;;5.43;2.40;;;20.50;99.90;;;;;;5018770;28;20498;-62
2022/07/06 09:45:52;;;;;;;4.83;2.17;;;20.50;99.90;;;;;;5020709;28;20467;-62
2022/07/06 09:48:21;;;;;;;6.23;2.70;;;20.20;99.90;;;;;;5020981;28;20528;-62
2022/07/06 09:50:53;;;;;;;2.80;2.00;;;19.70;99.90;;;;;;5027880;28;20467;-62
2022/07/06 09:53:21;;;;;;;2.57;2.30;;;19.60;99.90;;;;;;5023555;28;20893;-62
2022/07/06 09:55:53;;;;;;;2.47;2.00;;;19.60;99.90;;;;;;5020459;28;20487;-62
2022/07/06 09:58:22;;;;;;;6.10;2.53;;;19.40;99.90;;;;;;5019748;28;20877;-62
2022/07/06 10:00:53;;;;;;;3.13;1.77;;;19.30;99.90;;;;;;5019620;28;20555;-62
2022/07/06 10:03:26;;;;;;;6.10;2.00;;;19.60;99.90;;;;;;5000464;28;20496;-62
2022/07/06 10:05:54;;;;;;;3.07;2.40;;;20.00;99.90;;;;;;5000857;28;20464;-63
2022/07/06 10:08:22;;;;;;;5.73;2.10;;;20.40;99.90;;;;;;5003090;28;20467;-63
2022/07/06 10:10:49;;;;;;;4.23;2.50;;;20.60;99.90;;;;;;5018513;28;20463;-63
2022/07/06 10:13:22;;;;;;;3.80;2.13;;;20.70;99.90;;;;;;5024770;28;20647;-62
2022/07/06 10:15:57;;;;;;;2.53;2.33;;;21.00;99.90;;;;;;5028622;28;20569;-62
2022/07/06 10:18:28;;;;;;;3.27;2.13;;;20.60;99.90;;;;;;5037892;28;20489;-61
2022/07/06 10:20:58;;;;;;;3.70;2.30;;;21.20;99.90;;;;;;5033854;28;20567;-61
2022/07/06 10:23:27;;;;;;;3.33;2.67;;;21.40;99.90;;;;;;5027804;28;20464;-62
2022/07/06 10:25:56;;;;;;;2.83;2.40;;;21.60;99.90;;;;;;5017004;28;20482;-62
2022/07/06 10:28:29;;;;;;;4.67;2.40;;;21.60;99.90;;;;;;5021595;28;20550;-62
2022/07/06 10:30:57;;;;;;;2.63;2.30;;;20.50;99.90;;;;;;5037675;28;20561;-62
2022/07/06 10:33:25;;;;;;;3.50;2.33;;;20.20;99.90;;;;;;5001764;28;20473;-62
2022/07/06 10:35:55;;;;;;;2.57;2.30;;;19.90;99.90;;;;;;5009062;28;20492;-62
2022/07/06 10:38:34;;;;;;;2.53;2.27;;;20.00;99.90;;;;;;5017279;28;20476;-62
2022/07/06 10:41:04;;;;;;;3.03;2.03;;;20.20;99.90;;;;;;5017371;28;20470;-62
2022/07/06 10:43:38;;;;;;;3.07;2.63;;;20.60;99.90;;;;;;5016060;28;20464;-62
2022/07/06 10:46:11;;;;;;;3.53;2.43;;;21.40;99.90;;;;;;5017004;28;20500;-62
2022/07/06 10:48:42;;;;;;;3.50;2.40;;;21.90;99.90;;;;;;5018071;28;20865;-63
2022/07/06 10:51:24;;;;;;;1.90;1.80;;;21.90;99.90;;;;;;5020104;28;20471;-62
2022/07/06 10:53:57;;;;;;;4.20;2.93;;;22.10;99.90;;;;;;5018901;28;20976;-63
2022/07/06 10:56:33;;;;;;;3.10;2.10;;;22.00;99.90;;;;;;5016565;28;20464;-62
2022/07/06 10:59:13;;;;;;;8.87;2.97;;;22.40;99.90;;;;;;5018780;28;20772;-62
2022/07/06 11:01:44;;;;;;;3.73;2.10;;;22.00;99.90;;;;;;5016608;28;20562;-63
2022/07/06 11:04:12;;;;;;;2.70;2.30;;;21.40;99.90;;;;;;5034650;28;20929;-62
2022/07/06 11:06:40;;;;;;;3.80;2.40;;;21.00;99.90;;;;;;5020194;28;20574;-61
2022/07/06 11:09:14;;;;;;;4.53;2.90;;;20.90;99.90;;;;;;5018386;28;20482;-62
2022/07/06 11:11:48;;;;;;;4.50;2.27;;;21.20;99.90;;;;;;5033748;28;20463;-62
2022/07/06 11:14:17;;;;;;;2.47;2.20;;;21.00;99.90;;;;;;5038615;28;20553;-63
2022/07/06 11:17:05;;;;;;;3.03;2.70;;;21.00;99.90;;;;;;5032483;28;20471;-62
2022/07/06 11:19:32;;;;;;;3.70;2.37;;;21.10;99.90;;;;;;5018994;28;20450;-63
2022/07/06 11:22:09;;;;;;;2.33;2.13;;;21.10;99.90;;;;;;5018865;28;20912;-63
2022/07/06 11:24:41;;;;;;;3.03;2.23;;;21.20;99.90;;;;;;5019128;28;20872;-62
2022/07/06 11:27:11;;;;;;;2.57;2.37;;;20.90;99.90;;;;;;5019287;28;20459;-62
2022/07/06 11:29:40;;;;;;;2.57;2.03;;;20.80;99.90;;;;;;5021749;28;20566;-62
2022/07/06 11:32:11;;;;;;;3.30;2.40;;;21.30;99.90;;;;;;5033325;28;20558;-63
2022/07/06 11:34:44;;;;;;;2.60;1.70;;;21.30;99.90;;;;;;5037436;28;20495;-62
2022/07/06 11:37:13;;;;;;;2.90;2.30;;;22.20;99.90;;;;;;5024421;28;20553;-63
2022/07/06 11:39:47;;;;;;;2.87;2.67;;;23.20;99.90;;;;;;5031685;28;20552;-62
2022/07/06 11:42:17;;;;;;;3.83;2.77;;;23.60;99.90;;;;;;5017712;28;20475;-62
2022/07/06 11:44:48;;;;;;;2.43;2.10;;;24.90;99.90;;;;;;5017602;28;20464;-63
2022/07/06 11:47:16;;;;;;;3.33;2.20;;;24.00;99.90;;;;;;5017942;28;20472;-62
2022/07/06 11:49:45;;;;;;;3.47;2.27;;;23.40;99.90;;;;;;5018175;28;20510;-63
2022/07/06 11:52:16;;;;;;;5.03;2.57;;;23.10;99.90;;;;;;5018308;28;20550;-62
2022/07/06 11:55:06;;;;;;;2.40;2.13;;;23.10;99.90;;;;;;5024587;28;20490;-62
2022/07/06 11:57:35;;;;;;;5.27;2.30;;;22.90;99.90;;;;;;5032366;28;20490;-62
2022/07/06 12:00:05;;;;;;;4.50;2.73;;;22.10;99.90;;;;;;5037518;28;20501;-62
2022/07/06 12:02:35;;;;;;;2.60;2.30;;;21.80;99.90;;;;;;5037336;28;20463;-63
2022/07/06 12:05:02;;;;;;;4.40;2.87;;;21.60;99.90;;;;;;5017207;28;20752;-62
2022/07/06 12:07:30;;;;;;;2.90;2.70;;;21.00;99.90;;;;;;5018799;28;20508;-62
2022/07/06 12:09:58;;;;;;;2.83;2.50;;;20.80;99.90;;;;;;5023681;28;20463;-62
2022/07/06 12:12:26;;;;;;;6.00;2.73;;;20.80;99.90;;;;;;5017499;28;20463;-62
2022/07/06 12:14:56;;;;;;;5.83;3.27;;;20.20;99.90;;;;;;5016692;28;20492;-62
2022/07/06 12:17:31;;;;;;;2.67;2.47;;;20.00;99.90;;;;;;5017857;28;20463;-62
2022/07/06 12:19:58;;;;;;;4.87;2.83;;;20.20;99.90;;;;;;5018067;28;20467;-62
2022/07/06 12:22:30;;;;;;;2.83;2.63;;;21.00;99.90;;;;;;5018015;28;20463;-62
2022/07/06 12:24:57;;;;;;;3.03;2.80;;;21.50;99.90;;;;;;5017042;28;20487;-62
2022/07/06 12:27:27;;;;;;;5.70;2.80;;;21.80;99.90;;;;;;5015664;28;20470;-62
2022/07/06 12:30:08;;;;;;;2.83;2.60;;;22.10;99.90;;;;;;5016272;28;20666;-62
2022/07/06 12:32:43;;;;;;;4.07;2.80;;;22.50;99.90;;;;;;5015705;28;20557;-63
2022/07/06 12:35:14;;;;;;;3.00;2.67;;;22.60;99.90;;;;;;5015858;28;20957;-62
2022/07/06 12:37:56;;;;;;;2.83;2.53;;;22.90;99.90;;;;;;5016395;28;20507;-63
2022/07/06 12:40:28;;;;;;;3.33;2.40;;;23.10;99.90;;;;;;5016965;28;20873;-62
2022/07/06 12:42:55;;;;;;;4.90;2.77;;;22.90;99.90;;;;;;5016802;28;20907;-63
2022/07/06 12:45:32;;;;;;;3.20;2.67;;;23.00;99.90;;;;;;5016181;28;20559;-62
2022/07/06 12:48:05;;;;;;;4.57;2.57;;;23.20;99.90;;;;;;5017321;28;20571;-62
2022/07/06 12:50:40;;;;;;;2.50;2.30;;;23.10;99.90;;;;;;5016725;28;20539;-62
2022/07/06 12:53:24;;;;;;;3.17;2.87;;;22.10;99.90;;;;;;5016865;28;20562;-63
2022/07/06 12:56:09;;;;;;;3.27;3.00;;;22.40;99.90;;;;;;5016373;28;20793;-62
2022/07/06 12:58:42;;;;;;;2.37;2.10;;;22.30;99.90;;;;;;5008745;28;20492;-62
2022/07/06 13:01:19;;;;;;;5.47;3.00;;;22.60;99.90;;;;;;4997633;28;20468;-62
2022/07/06 13:03:57;;;;;;;3.80;2.67;;;22.40;99.90;;;;;;4997396;28;20511;-63
2022/07/06 13:06:32;;;;;;;2.83;2.33;;;22.80;99.90;;;;;;4997721;28;20947;-63